sensor_id;sensor_type;location;lat;lon;timestamp;P1;durP1;ratioP1;P2;durP2;ratioP2
70588;SDS011;58152;49.202;18.744;2022-08-25T00:02:28;17.33;;;12.05;;
70588;SDS011;58152;49.202;18.744;2022-08-25T00:04:54;19.00;;;11.98;;
70588;SDS011;58152;49.202;18.744;2022-08-25T00:10:10;18.35;;;12.02;;
70588;SDS011;58152;49.202;18.744;2022-08-25T00:12:53;19.48;;;12.85;;
70588;SDS011;58152;49.202;18.744;2022-08-25T00:15:18;18.92;;;13.02;;
70588;SDS011;58152;49.202;18.744;2022-08-25T00:17:46;15.13;;;11.90;;
70588;SDS011;58152;49.202;18.744;2022-08-25T00:20:12;18.15;;;12.13;;
70588;SDS011;58152;49.202;18.744;2022-08-25T00:22:37;18.83;;;11.57;;
70588;SDS011;58152;49.202;18.744;2022-08-25T00:25:03;18.23;;;11.65;;
70588;SDS011;58152;49.202;18.744;2022-08-25T00:27:28;17.88;;;12.05;;
70588;SDS011;58152;49.202;18.744;2022-08-25T00:29:54;16.20;;;10.52;;
70588;SDS011;58152;49.202;18.744;2022-08-25T00:32:20;16.17;;;11.23;;
70588;SDS011;58152;49.202;18.744;2022-08-25T00:34:45;19.35;;;11.43;;
70588;SDS011;58152;49.202;18.744;2022-08-25T00:37:11;17.05;;;12.23;;
70588;SDS011;58152;49.202;18.744;2022-08-25T00:39:37;15.50;;;12.07;;
70588;SDS011;58152;49.202;18.744;2022-08-25T00:42:03;19.98;;;12.43;;
70588;SDS011;58152;49.202;18.744;2022-08-25T00:44:31;16.35;;;12.43;;
70588;SDS011;58152;49.202;18.744;2022-08-25T00:46:57;15.75;;;11.38;;
70588;SDS011;58152;49.202;18.744;2022-08-25T00:52:05;18.17;;;11.65;;
70588;SDS011;58152;49.202;18.744;2022-08-25T00:54:36;20.13;;;12.82;;
70588;SDS011;58152;49.202;18.744;2022-08-25T00:57:09;18.58;;;12.48;;
70588;SDS011;58152;49.202;18.744;2022-08-25T00:59:38;16.92;;;11.18;;
70588;SDS011;58152;49.202;18.744;2022-08-25T01:02:05;18.45;;;12.27;;
70588;SDS011;58152;49.202;18.744;2022-08-25T01:04:32;19.38;;;12.18;;
70588;SDS011;58152;49.202;18.744;2022-08-25T01:06:58;14.55;;;11.15;;
70588;SDS011;58152;49.202;18.744;2022-08-25T01:09:25;16.35;;;11.75;;
70588;SDS011;58152;49.202;18.744;2022-08-25T01:11:55;20.05;;;11.43;;
70588;SDS011;58152;49.202;18.744;2022-08-25T01:14:21;19.23;;;12.60;;
70588;SDS011;58152;49.202;18.744;2022-08-25T01:16:48;18.88;;;12.02;;
70588;SDS011;58152;49.202;18.744;2022-08-25T01:19:14;21.30;;;12.10;;
70588;SDS011;58152;49.202;18.744;2022-08-25T01:21:45;21.08;;;13.27;;
70588;SDS011;58152;49.202;18.744;2022-08-25T01:26:50;20.85;;;12.88;;
70588;SDS011;58152;49.202;18.744;2022-08-25T01:29:16;17.80;;;12.05;;
70588;SDS011;58152;49.202;18.744;2022-08-25T01:31:53;21.48;;;12.02;;
70588;SDS011;58152;49.202;18.744;2022-08-25T01:34:22;17.13;;;11.80;;
70588;SDS011;58152;49.202;18.744;2022-08-25T01:36:50;18.40;;;12.23;;
70588;SDS011;58152;49.202;18.744;2022-08-25T01:39:16;15.32;;;10.73;;
70588;SDS011;58152;49.202;18.744;2022-08-25T01:44:17;22.50;;;12.05;;
70588;SDS011;58152;49.202;18.744;2022-08-25T01:46:43;19.80;;;13.38;;
70588;SDS011;58152;49.202;18.744;2022-08-25T01:49:09;16.85;;;12.70;;
70588;SDS011;58152;49.202;18.744;2022-08-25T01:51:39;16.90;;;12.27;;
70588;SDS011;58152;49.202;18.744;2022-08-25T01:54:08;17.17;;;13.95;;
70588;SDS011;58152;49.202;18.744;2022-08-25T01:56:33;15.70;;;11.75;;
70588;SDS011;58152;49.202;18.744;2022-08-25T01:58:59;21.67;;;12.52;;
70588;SDS011;58152;49.202;18.744;2022-08-25T02:01:25;15.43;;;11.77;;
70588;SDS011;58152;49.202;18.744;2022-08-25T02:03:52;16.38;;;12.00;;
70588;SDS011;58152;49.202;18.744;2022-08-25T02:06:27;18.58;;;12.05;;
70588;SDS011;58152;49.202;18.744;2022-08-25T02:09:01;18.85;;;11.75;;
70588;SDS011;58152;49.202;18.744;2022-08-25T02:11:29;16.13;;;12.05;;
70588;SDS011;58152;49.202;18.744;2022-08-25T02:13:56;19.85;;;12.52;;
70588;SDS011;58152;49.202;18.744;2022-08-25T02:16:24;17.15;;;11.63;;
70588;SDS011;58152;49.202;18.744;2022-08-25T02:18:52;17.23;;;11.43;;
70588;SDS011;58152;49.202;18.744;2022-08-25T02:21:19;17.05;;;11.40;;
70588;SDS011;58152;49.202;18.744;2022-08-25T02:23:45;14.13;;;11.35;;
70588;SDS011;58152;49.202;18.744;2022-08-25T02:26:11;13.82;;;10.45;;
70588;SDS011;58152;49.202;18.744;2022-08-25T02:28:41;15.98;;;10.20;;
70588;SDS011;58152;49.202;18.744;2022-08-25T02:31:07;11.23;;;9.75;;
70588;SDS011;58152;49.202;18.744;2022-08-25T02:33:33;17.23;;;10.85;;
70588;SDS011;58152;49.202;18.744;2022-08-25T02:35:59;14.48;;;11.05;;
70588;SDS011;58152;49.202;18.744;2022-08-25T02:38:26;19.00;;;11.07;;
70588;SDS011;58152;49.202;18.744;2022-08-25T02:40:52;14.77;;;11.23;;
70588;SDS011;58152;49.202;18.744;2022-08-25T02:43:22;16.73;;;11.38;;
70588;SDS011;58152;49.202;18.744;2022-08-25T02:45:49;15.18;;;11.82;;
70588;SDS011;58152;49.202;18.744;2022-08-25T02:48:19;15.82;;;10.82;;
70588;SDS011;58152;49.202;18.744;2022-08-25T02:50:49;20.13;;;11.10;;
70588;SDS011;58152;49.202;18.744;2022-08-25T02:53:17;15.40;;;11.07;;
70588;SDS011;58152;49.202;18.744;2022-08-25T02:55:45;15.93;;;11.50;;
70588;SDS011;58152;49.202;18.744;2022-08-25T02:58:20;16.02;;;11.70;;
70588;SDS011;58152;49.202;18.744;2022-08-25T03:00:46;16.60;;;11.32;;
70588;SDS011;58152;49.202;18.744;2022-08-25T03:03:13;17.00;;;11.80;;
70588;SDS011;58152;49.202;18.744;2022-08-25T03:05:38;14.90;;;11.25;;
70588;SDS011;58152;49.202;18.744;2022-08-25T03:08:05;15.73;;;13.00;;
70588;SDS011;58152;49.202;18.744;2022-08-25T03:10:31;15.27;;;11.43;;
70588;SDS011;58152;49.202;18.744;2022-08-25T03:12:57;21.95;;;12.38;;
70588;SDS011;58152;49.202;18.744;2022-08-25T03:15:23;20.05;;;13.00;;
70588;SDS011;58152;49.202;18.744;2022-08-25T03:17:52;13.88;;;11.13;;
70588;SDS011;58152;49.202;18.744;2022-08-25T03:20:19;13.18;;;10.73;;
70588;SDS011;58152;49.202;18.744;2022-08-25T03:22:48;16.77;;;11.45;;
70588;SDS011;58152;49.202;18.744;2022-08-25T03:25:14;14.70;;;11.52;;
70588;SDS011;58152;49.202;18.744;2022-08-25T03:27:58;20.17;;;17.27;;
70588;SDS011;58152;49.202;18.744;2022-08-25T03:30:24;18.55;;;16.55;;
70588;SDS011;58152;49.202;18.744;2022-08-25T03:32:51;21.85;;;14.55;;
70588;SDS011;58152;49.202;18.744;2022-08-25T03:35:17;18.30;;;12.40;;
70588;SDS011;58152;49.202;18.744;2022-08-25T03:37:42;15.27;;;11.30;;
70588;SDS011;58152;49.202;18.744;2022-08-25T03:40:09;15.20;;;11.75;;
70588;SDS011;58152;49.202;18.744;2022-08-25T03:42:41;18.00;;;11.90;;
70588;SDS011;58152;49.202;18.744;2022-08-25T03:45:10;17.08;;;10.93;;
70588;SDS011;58152;49.202;18.744;2022-08-25T03:47:37;13.30;;;10.48;;
70588;SDS011;58152;49.202;18.744;2022-08-25T03:50:08;15.82;;;10.95;;
70588;SDS011;58152;49.202;18.744;2022-08-25T03:52:35;16.40;;;10.68;;
70588;SDS011;58152;49.202;18.744;2022-08-25T03:55:02;15.40;;;11.18;;
70588;SDS011;58152;49.202;18.744;2022-08-25T03:57:30;18.25;;;12.95;;
70588;SDS011;58152;49.202;18.744;2022-08-25T03:59:55;16.05;;;11.27;;
70588;SDS011;58152;49.202;18.744;2022-08-25T04:02:21;21.58;;;13.98;;
70588;SDS011;58152;49.202;18.744;2022-08-25T04:04:46;21.67;;;13.93;;
70588;SDS011;58152;49.202;18.744;2022-08-25T04:07:12;23.08;;;13.30;;
70588;SDS011;58152;49.202;18.744;2022-08-25T04:09:37;22.77;;;12.63;;
70588;SDS011;58152;49.202;18.744;2022-08-25T04:12:03;22.85;;;13.15;;
70588;SDS011;58152;49.202;18.744;2022-08-25T04:14:29;19.65;;;13.98;;
70588;SDS011;58152;49.202;18.744;2022-08-25T04:16:55;22.33;;;14.05;;
70588;SDS011;58152;49.202;18.744;2022-08-25T04:19:21;21.27;;;14.73;;
70588;SDS011;58152;49.202;18.744;2022-08-25T04:21:46;23.05;;;14.40;;
70588;SDS011;58152;49.202;18.744;2022-08-25T04:24:12;22.15;;;15.23;;
70588;SDS011;58152;49.202;18.744;2022-08-25T04:26:39;28.05;;;16.42;;
70588;SDS011;58152;49.202;18.744;2022-08-25T04:29:07;22.23;;;14.90;;
70588;SDS011;58152;49.202;18.744;2022-08-25T04:31:34;23.48;;;15.93;;
70588;SDS011;58152;49.202;18.744;2022-08-25T04:34:03;27.15;;;17.27;;
70588;SDS011;58152;49.202;18.744;2022-08-25T04:36:29;29.98;;;16.70;;
70588;SDS011;58152;49.202;18.744;2022-08-25T04:38:55;28.80;;;15.93;;
70588;SDS011;58152;49.202;18.744;2022-08-25T04:41:22;21.65;;;14.75;;
70588;SDS011;58152;49.202;18.744;2022-08-25T04:43:51;26.60;;;15.68;;
70588;SDS011;58152;49.202;18.744;2022-08-25T04:46:21;20.70;;;14.90;;
70588;SDS011;58152;49.202;18.744;2022-08-25T04:48:49;24.50;;;16.45;;
70588;SDS011;58152;49.202;18.744;2022-08-25T04:51:17;20.98;;;15.77;;
70588;SDS011;58152;49.202;18.744;2022-08-25T04:53:48;19.77;;;15.48;;
70588;SDS011;58152;49.202;18.744;2022-08-25T04:56:15;18.70;;;15.50;;
70588;SDS011;58152;49.202;18.744;2022-08-25T04:58:45;19.58;;;15.32;;
70588;SDS011;58152;49.202;18.744;2022-08-25T05:01:15;19.63;;;14.40;;
70588;SDS011;58152;49.202;18.744;2022-08-25T05:03:42;16.77;;;13.48;;
70588;SDS011;58152;49.202;18.744;2022-08-25T05:06:47;21.08;;;14.73;;
70588;SDS011;58152;49.202;18.744;2022-08-25T05:09:18;21.70;;;15.98;;
70588;SDS011;58152;49.202;18.744;2022-08-25T05:11:44;17.25;;;14.00;;
70588;SDS011;58152;49.202;18.744;2022-08-25T05:14:09;17.30;;;14.07;;
70588;SDS011;58152;49.202;18.744;2022-08-25T05:19:48;16.98;;;13.18;;
70588;SDS011;58152;49.202;18.744;2022-08-25T05:22:30;15.80;;;13.07;;
70588;SDS011;58152;49.202;18.744;2022-08-25T05:25:17;14.35;;;12.55;;
70588;SDS011;58152;49.202;18.744;2022-08-25T05:27:48;14.30;;;11.68;;
70588;SDS011;58152;49.202;18.744;2022-08-25T05:30:14;16.58;;;12.07;;
70588;SDS011;58152;49.202;18.744;2022-08-25T05:32:40;17.70;;;11.50;;
70588;SDS011;58152;49.202;18.744;2022-08-25T05:35:16;16.17;;;12.75;;
70588;SDS011;58152;49.202;18.744;2022-08-25T05:37:43;15.50;;;12.07;;
70588;SDS011;58152;49.202;18.744;2022-08-25T05:47:22;18.20;;;13.13;;
70588;SDS011;58152;49.202;18.744;2022-08-25T05:50:22;19.88;;;14.18;;
70588;SDS011;58152;49.202;18.744;2022-08-25T05:53:00;27.30;;;15.98;;
70588;SDS011;58152;49.202;18.744;2022-08-25T05:55:31;24.63;;;16.35;;
70588;SDS011;58152;49.202;18.744;2022-08-25T05:58:02;24.13;;;16.33;;
70588;SDS011;58152;49.202;18.744;2022-08-25T06:00:41;21.65;;;15.90;;
70588;SDS011;58152;49.202;18.744;2022-08-25T06:03:20;54.28;;;44.38;;
70588;SDS011;58152;49.202;18.744;2022-08-25T06:05:46;74.10;;;55.85;;
70588;SDS011;58152;49.202;18.744;2022-08-25T06:08:14;58.38;;;46.00;;
70588;SDS011;58152;49.202;18.744;2022-08-25T06:10:40;34.60;;;25.08;;
70588;SDS011;58152;49.202;18.744;2022-08-25T06:23:01;19.02;;;14.20;;
70588;SDS011;58152;49.202;18.744;2022-08-25T06:25:42;20.75;;;16.20;;
70588;SDS011;58152;49.202;18.744;2022-08-25T06:28:20;18.05;;;14.95;;
70588;SDS011;58152;49.202;18.744;2022-08-25T06:37:50;20.38;;;13.85;;
70588;SDS011;58152;49.202;18.744;2022-08-25T06:47:21;20.15;;;14.23;;
70588;SDS011;58152;49.202;18.744;2022-08-25T07:02:22;14.17;;;12.63;;
70588;SDS011;58152;49.202;18.744;2022-08-25T07:09:10;16.35;;;13.18;;
70588;SDS011;58152;49.202;18.744;2022-08-25T07:15:15;17.75;;;14.10;;
70588;SDS011;58152;49.202;18.744;2022-08-25T07:20:59;21.42;;;15.00;;
70588;SDS011;58152;49.202;18.744;2022-08-25T07:23:25;19.42;;;15.45;;
70588;SDS011;58152;49.202;18.744;2022-08-25T07:25:51;17.48;;;12.90;;
70588;SDS011;58152;49.202;18.744;2022-08-25T07:28:18;18.55;;;12.38;;
70588;SDS011;58152;49.202;18.744;2022-08-25T07:30:45;23.15;;;15.27;;
70588;SDS011;58152;49.202;18.744;2022-08-25T07:33:11;21.92;;;14.57;;
70588;SDS011;58152;49.202;18.744;2022-08-25T07:35:36;26.20;;;15.23;;
70588;SDS011;58152;49.202;18.744;2022-08-25T07:38:04;17.55;;;12.65;;
70588;SDS011;58152;49.202;18.744;2022-08-25T07:40:46;18.02;;;12.70;;
70588;SDS011;58152;49.202;18.744;2022-08-25T07:43:19;17.40;;;11.68;;
70588;SDS011;58152;49.202;18.744;2022-08-25T07:45:46;17.08;;;12.48;;
70588;SDS011;58152;49.202;18.744;2022-08-25T07:48:12;18.40;;;12.20;;
70588;SDS011;58152;49.202;18.744;2022-08-25T07:50:41;14.00;;;11.52;;
70588;SDS011;58152;49.202;18.744;2022-08-25T07:53:09;14.55;;;11.30;;
70588;SDS011;58152;49.202;18.744;2022-08-25T07:55:35;15.10;;;11.80;;
70588;SDS011;58152;49.202;18.744;2022-08-25T07:58:03;18.45;;;13.02;;
70588;SDS011;58152;49.202;18.744;2022-08-25T08:00:30;16.67;;;12.30;;
70588;SDS011;58152;49.202;18.744;2022-08-25T08:09:52;75.40;;;66.55;;
70588;SDS011;58152;49.202;18.744;2022-08-25T08:12:18;44.85;;;39.40;;
70588;SDS011;58152;49.202;18.744;2022-08-25T08:14:44;27.42;;;22.58;;
70588;SDS011;58152;49.202;18.744;2022-08-25T08:20:04;17.92;;;12.20;;
70588;SDS011;58152;49.202;18.744;2022-08-25T08:54:09;15.07;;;9.73;;
70588;SDS011;58152;49.202;18.744;2022-08-25T08:57:01;18.83;;;11.15;;
70588;SDS011;58152;49.202;18.744;2022-08-25T08:59:45;20.70;;;10.95;;
70588;SDS011;58152;49.202;18.744;2022-08-25T09:22:14;13.32;;;8.23;;
70588;SDS011;58152;49.202;18.744;2022-08-25T09:25:01;11.75;;;8.32;;
70588;SDS011;58152;49.202;18.744;2022-08-25T09:34:36;13.77;;;8.15;;
70588;SDS011;58152;49.202;18.744;2022-08-25T09:37:02;15.10;;;7.68;;
70588;SDS011;58152;49.202;18.744;2022-08-25T09:39:43;12.25;;;7.60;;
70588;SDS011;58152;49.202;18.744;2022-08-25T09:42:09;9.73;;;6.70;;
70588;SDS011;58152;49.202;18.744;2022-08-25T09:47:41;9.52;;;8.13;;
70588;SDS011;58152;49.202;18.744;2022-08-25T16:57:10;9.85;;;4.50;;
70588;SDS011;58152;49.202;18.744;2022-08-25T16:59:56;11.10;;;4.75;;
70588;SDS011;58152;49.202;18.744;2022-08-25T17:02:47;9.85;;;4.47;;
70588;SDS011;58152;49.202;18.744;2022-08-25T17:05:18;6.93;;;4.15;;
70588;SDS011;58152;49.202;18.744;2022-08-25T17:07:44;9.85;;;4.43;;
70588;SDS011;58152;49.202;18.744;2022-08-25T17:13:16;9.98;;;4.07;;
70588;SDS011;58152;49.202;18.744;2022-08-25T17:18:31;7.18;;;4.00;;
70588;SDS011;58152;49.202;18.744;2022-08-25T17:21:07;10.90;;;4.95;;
70588;SDS011;58152;49.202;18.744;2022-08-25T17:23:37;11.07;;;4.00;;
70588;SDS011;58152;49.202;18.744;2022-08-25T17:31:57;7.55;;;4.15;;
70588;SDS011;58152;49.202;18.744;2022-08-25T17:34:28;7.65;;;4.32;;
70588;SDS011;58152;49.202;18.744;2022-08-25T17:36:54;11.90;;;5.03;;
70588;SDS011;58152;49.202;18.744;2022-08-25T17:39:20;9.55;;;4.80;;
70588;SDS011;58152;49.202;18.744;2022-08-25T17:41:46;9.05;;;4.65;;
70588;SDS011;58152;49.202;18.744;2022-08-25T17:44:12;8.73;;;4.28;;
70588;SDS011;58152;49.202;18.744;2022-08-25T17:46:39;12.73;;;5.63;;
70588;SDS011;58152;49.202;18.744;2022-08-25T17:49:05;12.35;;;4.85;;
70588;SDS011;58152;49.202;18.744;2022-08-25T17:51:49;16.63;;;5.97;;
70588;SDS011;58152;49.202;18.744;2022-08-25T18:01:36;9.43;;;5.18;;
